Time;durP1;ratioP1;P1;durP2;ratioP2;P2;SDS_P1;SDS_P2;PMS_P1;PMS_P2;Temp;Humidity;BMP_temperature;BMP_pressure;BME280_temperature;BME280_humidity;BME280_pressure;Samples;Min_cycle;Max_cycle;Signal;HPM_P1;HPM_P2
2023/09/24 00:00:59;;;;;;;15.43;6.35;;;13.30;99.90;;;;;;4988692;28;20429;-84
2023/09/24 00:03:25;;;;;;;15.75;6.15;;;12.20;99.90;;;;;;4995163;28;20419;-84
2023/09/24 00:05:51;;;;;;;13.38;6.00;;;;;;;;;;5006819;28;20421;-84
2023/09/24 00:08:18;;;;;;;10.38;5.78;;;;;;;;;;4999000;28;20797;-84
2023/09/24 00:10:52;;;;;;;10.43;5.27;;;;;;;;;;4988130;28;20463;-84
2023/09/24 00:13:19;;;;;;;10.57;5.50;;;12.00;99.90;;;;;;4972734;28;20413;-84
2023/09/24 00:15:45;;;;;;;8.95;5.20;;;12.20;99.90;;;;;;4995294;28;20445;-82
2023/09/24 00:18:11;;;;;;;12.15;5.32;;;;;;;;;;5009455;28;20793;-84
2023/09/24 00:20:39;;;;;;;12.17;5.20;;;12.30;99.90;;;;;;4999964;28;20411;-84
2023/09/24 00:23:04;;;;;;;10.25;5.28;;;12.20;99.90;;;;;;4975309;28;20417;-83
2023/09/24 00:25:30;;;;;;;12.63;5.68;;;12.30;99.90;;;;;;4987954;28;20785;-83
2023/09/24 00:27:56;;;;;;;10.73;5.40;;;12.00;99.90;;;;;;5011255;28;20458;-85
2023/09/24 00:30:22;;;;;;;10.63;5.18;;;12.00;99.90;;;;;;4994867;28;20908;-84
2023/09/24 00:32:48;;;;;;;13.07;5.40;;;12.00;99.90;;;;;;5011269;28;20794;-85
2023/09/24 00:35:15;;;;;;;13.27;5.87;;;;;;;;;;5010731;28;20413;-83
2023/09/24 00:37:42;;;;;;;11.40;5.65;;;;;;;;;;4989776;28;20434;-84
2023/09/24 00:40:10;;;;;;;12.60;5.60;;;;;;;;;;4991180;28;20413;-83
2023/09/24 00:42:37;;;;;;;11.15;5.28;;;12.00;99.90;;;;;;4991293;28;20413;-84
2023/09/24 00:45:03;;;;;;;11.63;5.57;;;;;;;;;;4975329;28;20529;-84
2023/09/24 00:47:29;;;;;;;14.18;5.90;;;11.90;99.90;;;;;;4981861;28;20414;-84
2023/09/24 00:49:55;;;;;;;9.60;5.90;;;11.80;99.90;;;;;;4995267;28;20411;-84
2023/09/24 00:52:24;;;;;;;11.23;5.57;;;11.90;99.90;;;;;;4974861;28;20434;-84
2023/09/24 00:54:50;;;;;;;11.18;5.80;;;11.90;99.90;;;;;;5001936;28;20496;-84
2023/09/24 00:57:17;;;;;;;11.60;5.78;;;;;;;;;;4991406;28;20839;-84
2023/09/24 00:59:46;;;;;;;12.10;6.22;;;;;;;;;;4990987;28;20473;-85
2023/09/24 01:02:13;;;;;;;11.75;5.32;;;;;;;;;;4992096;28;20484;-84
2023/09/24 01:04:39;;;;;;;14.57;5.65;;;11.70;99.90;;;;;;4975517;28;20410;-84
2023/09/24 01:07:05;;;;;;;10.55;5.68;;;11.70;99.90;;;;;;5008009;28;20465;-84
2023/09/24 01:09:31;;;;;;;11.27;5.80;;;11.80;99.90;;;;;;4975677;28;20732;-85
2023/09/24 01:11:57;;;;;;;13.80;5.38;;;11.80;99.90;;;;;;4989564;28;20615;-84
2023/09/24 01:14:25;;;;;;;14.25;5.95;;;;;;;;;;4976941;28;20837;-84
2023/09/24 01:16:50;;;;;;;12.73;5.35;;;11.80;99.90;;;;;;4975195;28;20417;-84
2023/09/24 01:19:16;;;;;;;14.40;5.85;;;11.70;99.90;;;;;;4982893;28;20433;-84
2023/09/24 01:21:43;;;;;;;14.85;5.78;;;;;;;;;;4973569;28;20415;-83
2023/09/24 01:24:09;;;;;;;14.43;5.60;;;11.80;99.90;;;;;;4990973;28;20552;-84
2023/09/24 01:26:35;;;;;;;12.20;5.83;;;;;;;;;;4974429;28;20513;-83
2023/09/24 01:29:02;;;;;;;16.63;6.20;;;11.60;99.90;;;;;;4995716;28;20419;-83
2023/09/24 01:31:30;;;;;;;13.30;5.95;;;;;;;;;;4976737;28;20565;-83
2023/09/24 01:33:59;;;;;;;13.55;5.72;;;;;;;;;;5001938;28;20429;-83
2023/09/24 01:36:25;;;;;;;13.38;5.50;;;11.60;99.90;;;;;;4977422;28;21361;-84
2023/09/24 01:38:53;;;;;;;14.47;5.87;;;11.60;99.90;;;;;;4991099;28;20426;-83
2023/09/24 01:41:19;;;;;;;16.23;6.35;;;11.50;99.90;;;;;;4978230;28;20445;-83
2023/09/24 01:43:46;;;;;;;11.73;6.25;;;11.70;99.90;;;;;;4999515;28;20786;-83
2023/09/24 01:46:13;;;;;;;10.53;5.50;;;;;;;;;;4990073;28;20910;-83
2023/09/24 01:48:39;;;;;;;12.05;5.88;;;11.50;99.90;;;;;;4993137;28;20904;-82
2023/09/24 01:51:11;;;;;;;15.35;6.10;;;11.60;99.90;;;;;;5008987;28;20413;-83
2023/09/24 01:53:38;;;;;;;11.45;6.10;;;;;;;;;;5003011;28;20786;-82
2023/09/24 01:56:07;;;;;;;13.82;6.20;;;11.60;99.90;;;;;;4979620;28;20450;-82
2023/09/24 01:58:33;;;;;;;14.55;6.68;;;;;;;;;;4992153;28;20437;-83
2023/09/24 02:00:59;;;;;;;12.23;6.10;;;11.40;99.90;;;;;;4989650;28;20879;-84
2023/09/24 02:03:26;;;;;;;13.50;6.30;;;11.60;99.90;;;;;;4997311;28;20411;-83
2023/09/24 02:05:52;;;;;;;13.40;6.88;;;11.40;99.90;;;;;;4989769;28;20411;-84
2023/09/24 02:08:18;;;;;;;19.07;7.67;;;11.30;99.90;;;;;;4991277;28;20945;-83
2023/09/24 02:10:44;;;;;;;17.37;7.17;;;11.30;99.90;;;;;;4990965;28;20418;-83
2023/09/24 02:13:12;;;;;;;16.75;7.75;;;11.50;99.90;;;;;;4989512;28;20423;-83
2023/09/24 02:15:39;;;;;;;13.77;8.15;;;11.50;99.90;;;;;;4979969;28;20912;-83
2023/09/24 02:18:05;;;;;;;18.13;8.07;;;11.50;99.90;;;;;;4991142;28;20953;-83
2023/09/24 02:20:32;;;;;;;18.02;8.20;;;;;;;;;;4972983;28;20414;-83
2023/09/24 02:23:00;;;;;;;16.77;8.30;;;11.00;99.90;;;;;;5002983;28;20420;-83
2023/09/24 02:25:28;;;;;;;14.68;7.95;;;11.40;99.90;;;;;;5004276;28;20413;-83
2023/09/24 02:27:55;;;;;;;17.13;9.07;;;11.50;99.90;;;;;;4989486;28;20411;-84
2023/09/24 02:30:23;;;;;;;17.58;9.75;;;11.10;99.90;;;;;;4992849;28;20415;-84
2023/09/24 02:32:49;;;;;;;16.58;9.27;;;11.40;99.90;;;;;;4972903;28;20913;-84
2023/09/24 02:35:16;;;;;;;15.40;8.63;;;11.30;99.90;;;;;;4998754;28;20424;-84
2023/09/24 02:37:44;;;;;;;15.50;8.68;;;;;;;;;;4972555;28;20918;-84
2023/09/24 02:40:31;;;;;;;15.88;8.70;;;11.40;99.90;;;;;;4990045;28;20489;-84
2023/09/24 02:42:58;;;;;;;17.38;8.75;;;11.30;99.90;;;;;;5003807;28;20449;-84
2023/09/24 02:45:24;;;;;;;18.20;9.15;;;;;;;;;;4991239;28;20823;-83
2023/09/24 02:47:50;;;;;;;15.18;8.70;;;11.30;99.90;;;;;;5002292;28;20413;-83
2023/09/24 02:50:24;;;;;;;18.75;9.15;;;11.20;99.90;;;;;;5006996;28;20499;-83
2023/09/24 02:52:54;;;;;;;16.63;9.23;;;11.50;99.90;;;;;;4989000;28;20442;-83
2023/09/24 02:55:22;;;;;;;14.57;7.85;;;11.20;99.90;;;;;;4988889;28;20898;-84
2023/09/24 02:57:50;;;;;;;15.63;8.30;;;11.20;99.90;;;;;;5007539;28;20429;-83
2023/09/24 03:00:26;;;;;;;16.38;8.32;;;;;;;;;;4998630;28;20420;-84
2023/09/24 03:02:53;;;;;;;18.85;9.18;;;11.20;99.90;;;;;;5008775;28;20617;-85
2023/09/24 03:05:20;;;;;;;17.17;9.10;;;;;;;;;;4996828;28;20460;-84
2023/09/24 03:07:47;;;;;;;18.05;9.40;;;11.20;99.90;;;;;;5004147;28;20438;-85
2023/09/24 03:10:13;;;;;;;16.60;9.70;;;;;;;;;;4996015;28;20829;-85
2023/09/24 03:12:43;;;;;;;16.05;9.73;;;11.10;99.90;;;;;;5003024;28;20414;-84
2023/09/24 03:15:12;;;;;;;19.42;10.73;;;11.10;99.90;;;;;;5008279;28;20424;-86
2023/09/24 03:17:42;;;;;;;21.67;11.03;;;11.20;99.90;;;;;;4992326;28;20415;-84
2023/09/24 03:20:15;;;;;;;21.45;10.88;;;11.20;99.90;;;;;;4999432;28;20761;-84
2023/09/24 03:22:43;;;;;;;19.55;10.80;;;11.10;99.90;;;;;;5008428;28;20409;-84
2023/09/24 03:25:10;;;;;;;19.27;10.98;;;11.10;99.90;;;;;;4982530;28;20430;-85
2023/09/24 03:27:38;;;;;;;18.23;10.73;;;11.00;99.90;;;;;;4990688;28;20419;-84
2023/09/24 03:30:07;;;;;;;16.60;10.60;;;10.80;99.90;;;;;;4988430;28;20479;-84
2023/09/24 03:32:33;;;;;;;20.20;11.52;;;10.80;99.90;;;;;;4981106;28;20926;-85
2023/09/24 03:34:59;;;;;;;19.23;11.40;;;10.90;99.90;;;;;;4989168;28;20406;-85
2023/09/24 03:37:25;;;;;;;19.67;10.60;;;11.10;99.90;;;;;;5023472;28;20443;-84
2023/09/24 03:39:51;;;;;;;16.73;10.95;;;10.90;99.90;;;;;;5002549;28;20426;-85
2023/09/24 03:42:18;;;;;;;16.45;11.13;;;;;;;;;;4973427;28;20431;-85
2023/09/24 03:44:43;;;;;;;21.53;11.83;;;10.90;99.90;;;;;;4990608;28;20419;-84
2023/09/24 03:47:09;;;;;;;19.33;11.33;;;10.60;99.90;;;;;;4996307;28;20397;-84
2023/09/24 03:49:35;;;;;;;19.80;11.40;;;10.90;99.90;;;;;;4992311;28;20421;-83
2023/09/24 03:52:01;;;;;;;18.43;11.60;;;;;;;;;;4968537;28;20805;-84
2023/09/24 03:54:27;;;;;;;18.33;11.60;;;10.90;99.90;;;;;;4973306;28;20772;-83
2023/09/24 03:56:54;;;;;;;19.20;11.70;;;10.70;99.90;;;;;;4987605;28;20432;-83
2023/09/24 03:59:19;;;;;;;22.00;12.07;;;10.80;99.90;;;;;;4998526;28;20958;-84
2023/09/24 04:01:45;;;;;;;19.38;11.70;;;10.60;99.90;;;;;;4977188;28;20484;-86
2023/09/24 04:04:11;;;;;;;18.70;11.80;;;10.80;99.90;;;;;;4987947;28;20414;-84
2023/09/24 04:06:39;;;;;;;18.70;11.07;;;;;;;;;;4983323;28;20409;-85
2023/09/24 04:09:06;;;;;;;21.73;12.65;;;10.90;99.90;;;;;;4994699;28;20906;-84
2023/09/24 04:11:32;;;;;;;20.95;10.70;;;10.70;99.90;;;;;;4989617;28;20966;-83
2023/09/24 04:13:58;;;;;;;19.80;11.10;;;10.40;99.90;;;;;;4971790;28;20495;-81
2023/09/24 04:16:24;;;;;;;23.73;11.55;;;;;;;;;;4988515;28;20426;-83
2023/09/24 04:18:50;;;;;;;19.98;11.10;;;10.60;99.90;;;;;;4987871;28;21010;-83
2023/09/24 04:21:19;;;;;;;18.75;11.63;;;10.60;99.90;;;;;;4955752;28;20493;-83
2023/09/24 04:23:46;;;;;;;22.20;11.17;;;10.60;99.90;;;;;;4989885;28;20437;-83
2023/09/24 04:26:22;;;;;;;19.77;11.25;;;10.60;99.90;;;;;;4989439;28;20780;-83
2023/09/24 04:28:50;;;;;;;19.15;11.63;;;10.60;99.90;;;;;;4990733;28;20435;-83
2023/09/24 04:31:16;;;;;;;20.58;11.48;;;10.60;99.90;;;;;;4993459;28;20771;-83
2023/09/24 04:33:44;;;;;;;22.60;11.50;;;;;;;;;;5000504;28;20452;-82
2023/09/24 04:36:10;;;;;;;22.88;11.30;;;;;;;;;;4985966;28;20412;-83
2023/09/24 04:38:36;;;;;;;19.00;11.20;;;10.50;99.90;;;;;;4981625;28;20494;-84
2023/09/24 04:41:03;;;;;;;17.77;10.68;;;;;;;;;;5007147;28;20480;-83
2023/09/24 04:43:29;;;;;;;18.77;11.15;;;10.40;99.90;;;;;;5005068;28;20425;-84
2023/09/24 04:45:55;;;;;;;18.83;11.13;;;10.50;99.90;;;;;;4996776;28;20911;-84
2023/09/24 04:48:20;;;;;;;20.70;11.25;;;10.50;99.90;;;;;;5005026;28;20521;-84
2023/09/24 04:50:46;;;;;;;20.83;10.73;;;;;;;;;;5002072;28;20479;-85
2023/09/24 04:53:12;;;;;;;18.77;10.75;;;10.50;99.90;;;;;;4972175;28;20417;-85
2023/09/24 04:55:38;;;;;;;19.23;10.90;;;;;;;;;;4988349;28;20419;-84
2023/09/24 04:58:04;;;;;;;19.92;10.68;;;10.30;99.90;;;;;;4972465;28;20437;-85
2023/09/24 05:00:30;;;;;;;16.80;10.35;;;10.40;99.90;;;;;;4992480;28;20416;-85
2023/09/24 05:02:56;;;;;;;21.02;10.60;;;;;;;;;;5005309;28;20498;-85
2023/09/24 05:05:22;;;;;;;19.08;10.60;;;;;;;;;;5007907;28;20424;-84
2023/09/24 05:07:50;;;;;;;19.20;10.43;;;10.40;99.90;;;;;;5003638;28;20420;-84
2023/09/24 05:10:16;;;;;;;20.67;10.13;;;10.40;99.90;;;;;;5007868;28;20414;-84
2023/09/24 05:12:43;;;;;;;16.00;10.53;;;;;;;;;;4998007;28;20415;-84
2023/09/24 05:15:09;;;;;;;18.48;10.32;;;;;;;;;;4979827;28;20432;-84
2023/09/24 05:17:35;;;;;;;19.20;10.15;;;10.40;99.90;;;;;;4996701;28;20444;-85
2023/09/24 05:20:02;;;;;;;18.08;10.40;;;10.00;99.90;;;;;;4992457;28;20434;-84
2023/09/24 05:22:28;;;;;;;16.23;10.23;;;10.00;99.90;;;;;;4983341;28;20566;-83
2023/09/24 05:24:54;;;;;;;17.03;10.27;;;9.90;99.90;;;;;;4975561;28;20414;-83
2023/09/24 05:27:20;;;;;;;19.48;10.93;;;10.10;99.90;;;;;;5001954;28;20424;-85
2023/09/24 05:29:46;;;;;;;19.52;10.50;;;;;;;;;;4992911;28;20495;-82
2023/09/24 05:32:13;;;;;;;16.90;10.27;;;;;;;;;;4994510;28;20409;-81
2023/09/24 05:34:39;;;;;;;18.95;10.20;;;;;;;;;;4985702;28;20473;-82
2023/09/24 05:37:06;;;;;;;19.45;11.07;;;10.20;99.90;;;;;;4991360;28;20426;-83
2023/09/24 05:39:33;;;;;;;18.73;10.77;;;;;;;;;;4974556;28;20510;-83
2023/09/24 05:41:59;;;;;;;17.45;10.50;;;10.10;99.90;;;;;;4991162;28;20410;-83
2023/09/24 05:44:25;;;;;;;18.20;10.35;;;;;;;;;;4992920;28;20935;-81
2023/09/24 05:46:51;;;;;;;16.10;9.98;;;;;;;;;;4996664;28;20410;-83
2023/09/24 05:49:18;;;;;;;17.33;10.27;;;10.30;99.90;;;;;;5007139;28;20897;-84
2023/09/24 05:51:44;;;;;;;16.58;10.07;;;;;;;;;;4990175;28;20412;-83
2023/09/24 05:54:10;;;;;;;19.00;10.32;;;;;;;;;;5000550;28;20520;-83
2023/09/24 05:56:37;;;;;;;18.35;10.27;;;;;;;;;;4997123;28;20418;-83
2023/09/24 05:59:03;;;;;;;18.95;10.38;;;10.20;99.90;;;;;;4992910;28;20442;-82
2023/09/24 06:01:28;;;;;;;16.83;9.90;;;10.30;99.90;;;;;;5000002;28;20426;-83
2023/09/24 06:03:54;;;;;;;18.52;10.02;;;10.20;99.90;;;;;;4976526;28;20401;-82
2023/09/24 06:06:20;;;;;;;17.08;10.05;;;10.30;99.90;;;;;;4983630;28;20477;-82
2023/09/24 06:08:45;;;;;;;17.13;9.75;;;10.30;99.90;;;;;;4988080;28;20446;-82
2023/09/24 06:11:11;;;;;;;15.93;10.00;;;10.40;99.90;;;;;;5000451;28;20424;-81
2023/09/24 06:13:37;;;;;;;19.63;9.47;;;10.60;99.90;;;;;;5003877;28;20823;-83
2023/09/24 06:16:03;;;;;;;16.40;9.50;;;10.50;99.90;;;;;;5009987;28;20970;-84
2023/09/24 06:18:29;;;;;;;17.55;9.35;;;10.60;99.90;;;;;;4988840;28;20477;-84
2023/09/24 06:20:56;;;;;;;16.63;9.60;;;10.30;99.90;;;;;;4994455;28;20413;-83
2023/09/24 06:23:22;;;;;;;17.83;9.65;;;10.70;99.90;;;;;;4961917;28;20406;-83
2023/09/24 06:25:55;;;;;;;17.00;9.55;;;10.90;99.90;;;;;;4997650;28;20930;-83
2023/09/24 06:28:22;;;;;;;18.35;9.15;;;;;;;;;;5009327;28;20413;-83
2023/09/24 06:30:47;;;;;;;16.20;8.82;;;10.90;99.90;;;;;;4997521;28;20479;-83
2023/09/24 06:33:13;;;;;;;14.87;8.50;;;;;;;;;;4978288;28;20501;-82
2023/09/24 06:35:39;;;;;;;12.97;8.07;;;;;;;;;;4990847;28;21042;-83
2023/09/24 06:38:05;;;;;;;14.05;8.10;;;;;;;;;;4985201;28;20425;-83
2023/09/24 06:40:32;;;;;;;15.00;8.02;;;;;;;;;;4993743;28;20418;-81
2023/09/24 06:42:57;;;;;;;13.23;7.90;;;11.30;99.90;;;;;;4999528;28;20467;-83
2023/09/24 06:45:23;;;;;;;14.03;8.13;;;11.40;99.90;;;;;;5009979;28;20507;-84
2023/09/24 06:47:49;;;;;;;12.77;7.28;;;;;;;;;;4994365;28;20406;-84
2023/09/24 06:50:15;;;;;;;13.60;8.02;;;11.50;99.90;;;;;;4990452;28;20498;-84
2023/09/24 06:52:40;;;;;;;12.97;7.83;;;11.30;99.90;;;;;;4978569;28;20488;-85
2023/09/24 06:55:09;;;;;;;13.45;7.50;;;11.60;99.90;;;;;;4999998;28;20412;-72
2023/09/24 06:57:36;;;;;;;12.70;7.40;;;11.70;99.90;;;;;;4985350;28;20491;-72
2023/09/24 07:00:04;;;;;;;12.93;7.72;;;;;;;;;;4998269;28;20480;-72
2023/09/24 07:02:30;;;;;;;13.35;7.85;;;;;;;;;;4989466;28;20444;-72
2023/09/24 07:04:56;;;;;;;13.50;7.47;;;11.80;99.90;;;;;;4983697;28;20409;-72
2023/09/24 07:07:22;;;;;;;12.70;7.55;;;11.60;99.90;;;;;;4997612;28;20805;-72
2023/09/24 07:09:48;;;;;;;13.32;7.53;;;11.80;99.90;;;;;;4998088;28;20409;-72
2023/09/24 07:12:14;;;;;;;12.65;7.35;;;11.80;99.90;;;;;;4981707;28;20412;-71
2023/09/24 07:14:40;;;;;;;14.10;7.18;;;;;;;;;;4980468;28;20418;-71
2023/09/24 07:17:06;;;;;;;12.73;7.43;;;12.20;99.90;;;;;;4990858;28;20457;-72
2023/09/24 07:19:32;;;;;;;13.32;7.05;;;12.10;99.90;;;;;;4942341;28;20426;-72
2023/09/24 07:21:58;;;;;;;11.45;7.25;;;12.30;99.90;;;;;;5032919;28;20429;-72
2023/09/24 07:24:24;;;;;;;16.42;7.60;;;12.70;99.90;;;;;;5006095;28;20430;-72
2023/09/24 07:26:51;;;;;;;12.38;6.28;;;12.80;99.90;;;;;;4981690;28;20835;-72
2023/09/24 07:29:16;;;;;;;12.77;7.40;;;12.90;99.90;;;;;;4975783;28;20426;-72
2023/09/24 07:31:42;;;;;;;9.73;6.40;;;12.70;99.90;;;;;;5003823;28;20460;-72
2023/09/24 07:34:09;;;;;;;9.57;6.20;;;12.80;99.90;;;;;;4999838;28;20456;-71
2023/09/24 07:36:35;;;;;;;11.30;6.40;;;;;;;;;;4992794;28;20479;-71
2023/09/24 07:39:01;;;;;;;11.10;6.60;;;13.30;99.90;;;;;;4994960;28;20940;-71
2023/09/24 07:41:27;;;;;;;12.98;6.30;;;13.40;99.90;;;;;;4980453;28;20403;-72
2023/09/24 07:43:53;;;;;;;10.85;6.38;;;13.40;99.90;;;;;;4983138;28;20422;-72
2023/09/24 07:46:19;;;;;;;13.15;6.07;;;13.40;99.90;;;;;;4956272;28;20430;-71
2023/09/24 07:48:48;;;;;;;10.90;6.38;;;13.40;99.90;;;;;;4980780;28;20974;-72
2023/09/24 07:51:16;;;;;;;11.45;6.03;;;13.70;99.90;;;;;;4974181;28;20945;-72
2023/09/24 07:53:43;;;;;;;9.35;5.97;;;;;;;;;;4979513;28;20458;-72
2023/09/24 07:56:09;;;;;;;11.98;6.07;;;13.80;99.90;;;;;;4998900;28;20521;-72
2023/09/24 07:58:35;;;;;;;12.57;5.70;;;;;;;;;;4990215;28;20560;-72
2023/09/24 08:01:06;;;;;;;10.00;5.65;;;13.70;99.90;;;;;;4998371;28;20999;-72
2023/09/24 08:03:33;;;;;;;14.93;6.13;;;13.70;99.90;;;;;;4992924;28;20429;-72
2023/09/24 08:05:59;;;;;;;9.98;5.57;;;;;;;;;;4993787;28;20484;-71
2023/09/24 08:08:26;;;;;;;10.13;5.60;;;14.30;99.90;;;;;;4991288;28;20901;-72
2023/09/24 08:10:52;;;;;;;9.60;5.33;;;14.40;99.90;;;;;;4973147;28;20416;-72
2023/09/24 08:13:21;;;;;;;9.85;5.50;;;14.60;99.90;;;;;;4973913;28;20462;-72
2023/09/24 08:15:48;;;;;;;9.90;5.10;;;14.80;99.90;;;;;;4971871;28;20424;-72
2023/09/24 08:18:15;;;;;;;9.43;5.22;;;14.60;99.90;;;;;;4994465;28;20485;-72
2023/09/24 08:20:41;;;;;;;9.23;5.53;;;14.80;99.90;;;;;;4974546;28;20412;-72
2023/09/24 08:23:07;;;;;;;8.33;4.73;;;15.00;99.90;;;;;;4991689;28;20765;-72
2023/09/24 08:25:34;;;;;;;9.57;5.20;;;15.20;99.90;;;;;;4996936;28;20405;-72
2023/09/24 08:28:01;;;;;;;9.13;4.80;;;15.70;99.90;;;;;;5004019;28;20423;-72
2023/09/24 08:30:31;;;;;;;9.45;5.00;;;14.70;99.90;;;;;;4981157;28;20410;-73
2023/09/24 08:32:57;;;;;;;11.05;5.18;;;14.90;99.90;;;;;;4996867;28;20413;-72
2023/09/24 08:35:23;;;;;;;10.55;5.20;;;14.70;99.90;;;;;;4993734;28;20427;-72
2023/09/24 08:37:49;;;;;;;10.90;4.90;;;14.80;99.90;;;;;;4980741;28;20596;-72
2023/09/24 08:40:16;;;;;;;8.85;4.85;;;15.10;99.90;;;;;;4978250;28;20981;-73
2023/09/24 08:42:47;;;;;;;9.90;5.03;;;15.40;99.90;;;;;;5009016;28;20409;-73
2023/09/24 08:45:20;;;;;;;10.85;5.10;;;15.60;99.90;;;;;;4999436;28;20826;-73
2023/09/24 08:47:47;;;;;;;8.98;4.80;;;15.80;99.90;;;;;;4999328;28;20463;-74
2023/09/24 08:50:14;;;;;;;9.07;4.13;;;16.20;99.90;;;;;;4989662;28;20409;-73
2023/09/24 08:52:45;;;;;;;7.50;3.80;;;16.10;99.90;;;;;;4991922;28;20909;-72
2023/09/24 08:55:12;;;;;;;7.18;4.00;;;15.80;99.90;;;;;;5005822;28;20411;-73
2023/09/24 08:57:40;;;;;;;9.55;4.07;;;16.20;99.90;;;;;;4965790;28;20416;-73
2023/09/24 09:00:09;;;;;;;9.68;4.40;;;16.20;99.90;;;;;;4997815;28;20416;-73
2023/09/24 09:02:35;;;;;;;8.80;4.05;;;16.40;99.90;;;;;;4996767;28;20512;-73
2023/09/24 09:05:07;;;;;;;8.00;4.07;;;16.40;99.90;;;;;;5015855;28;20463;-73
2023/09/24 09:07:33;;;;;;;8.35;3.67;;;16.30;99.90;;;;;;4990759;28;20409;-73
2023/09/24 09:10:03;;;;;;;9.23;3.90;;;16.30;99.90;;;;;;4973029;28;20427;-73
2023/09/24 09:12:29;;;;;;;6.68;3.50;;;16.40;99.90;;;;;;4990183;28;20417;-73
2023/09/24 09:14:55;;;;;;;8.07;3.95;;;16.70;99.90;;;;;;4993265;28;20436;-73
2023/09/24 09:17:22;;;;;;;8.90;3.90;;;16.70;99.90;;;;;;4993188;28;20501;-73
2023/09/24 09:19:49;;;;;;;7.75;3.90;;;16.30;99.90;;;;;;4993667;28;20463;-73
2023/09/24 09:22:21;;;;;;;7.22;3.75;;;16.50;99.90;;;;;;4982222;28;20981;-73
2023/09/24 09:24:48;;;;;;;7.85;3.70;;;16.60;99.90;;;;;;4997370;28;20417;-73
2023/09/24 09:27:14;;;;;;;8.23;3.53;;;17.00;99.90;;;;;;5006916;28;20426;-73
2023/09/24 09:29:40;;;;;;;8.50;3.30;;;17.00;99.90;;;;;;4998628;28;20501;-73
2023/09/24 09:32:06;;;;;;;8.57;3.40;;;17.40;99.90;;;;;;4994111;28;20506;-73
2023/09/24 09:34:32;;;;;;;7.80;3.28;;;17.00;99.90;;;;;;4983606;28;20425;-72
2023/09/24 09:37:17;;;;;;;7.40;3.10;;;17.20;99.90;;;;;;5001261;28;20419;-73
2023/09/24 09:39:44;;;;;;;7.00;3.27;;;17.30;99.90;;;;;;4994855;28;20584;-73
2023/09/24 09:42:13;;;;;;;7.33;2.97;;;17.30;99.90;;;;;;4976449;28;20411;-73
2023/09/24 09:44:42;;;;;;;9.85;2.78;;;17.70;99.90;;;;;;4977527;28;20430;-73
2023/09/24 09:47:10;;;;;;;6.13;2.50;;;17.80;99.90;;;;;;4997318;28;20406;-73
2023/09/24 09:49:39;;;;;;;6.90;2.73;;;18.00;99.90;;;;;;5000069;28;20492;-73
2023/09/24 09:52:08;;;;;;;6.18;2.80;;;17.90;99.90;;;;;;4977356;28;20414;-72
2023/09/24 09:54:37;;;;;;;7.70;2.97;;;18.00;99.90;;;;;;4996177;28;20411;-73
2023/09/24 09:57:04;;;;;;;8.38;2.78;;;18.00;99.90;;;;;;4995802;28;20543;-73
2023/09/24 09:59:34;;;;;;;6.88;2.55;;;17.80;99.90;;;;;;4990711;28;20443;-73
2023/09/24 10:02:02;;;;;;;7.13;2.58;;;18.30;99.90;;;;;;4997923;28;20811;-73
2023/09/24 10:04:30;;;;;;;7.80;2.70;;;18.30;99.90;;;;;;4988269;28;20417;-72
2023/09/24 10:06:56;;;;;;;5.80;2.42;;;18.10;99.90;;;;;;4999332;28;21191;-72
2023/09/24 10:09:29;;;;;;;6.88;2.40;;;18.00;99.90;;;;;;4987693;28;20421;-72
2023/09/24 10:11:56;;;;;;;7.53;2.30;;;18.00;99.90;;;;;;4996550;28;20414;-73
2023/09/24 10:14:54;;;;;;;5.70;2.30;;;18.10;99.90;;;;;;4974912;28;20431;-72
2023/09/24 10:17:23;;;;;;;6.80;2.17;;;18.30;99.90;;;;;;4991733;28;21005;-73
2023/09/24 10:19:54;;;;;;;7.22;2.42;;;18.00;99.90;;;;;;4995856;28;20459;-72
2023/09/24 10:22:30;;;;;;;7.80;2.25;;;18.30;99.90;;;;;;4994691;28;20951;-72
2023/09/24 10:24:56;;;;;;;6.53;2.55;;;18.20;99.90;;;;;;4976906;28;20401;-72
2023/09/24 10:27:32;;;;;;;5.97;2.20;;;18.10;99.90;;;;;;5004362;28;20413;-72
2023/09/24 10:29:59;;;;;;;8.30;2.53;;;18.40;99.90;;;;;;4997041;28;20763;-73
2023/09/24 10:32:26;;;;;;;7.15;2.78;;;18.50;99.90;;;;;;4995282;28;20835;-72
2023/09/24 10:34:52;;;;;;;6.18;2.30;;;18.90;99.90;;;;;;4974058;28;20410;-72
2023/09/24 10:37:19;;;;;;;5.47;2.10;;;18.60;99.90;;;;;;5000380;28;20405;-72
2023/09/24 10:40:07;;;;;;;5.72;2.45;;;18.50;99.90;;;;;;5004328;28;20426;-73
2023/09/24 10:42:38;;;;;;;6.50;2.38;;;18.70;99.90;;;;;;5005210;28;20409;-72
2023/09/24 10:45:07;;;;;;;5.68;2.20;;;18.60;99.90;;;;;;4998696;28;20505;-72
2023/09/24 10:47:41;;;;;;;5.78;2.22;;;18.70;99.90;;;;;;5034446;28;20952;-72
2023/09/24 10:50:18;;;;;;;8.65;2.30;;;18.70;99.90;;;;;;4998681;28;20754;-73
2023/09/24 10:53:02;;;;;;;6.70;2.30;;;18.70;99.90;;;;;;4998543;28;20426;-73
2023/09/24 10:55:30;;;;;;;6.78;2.30;;;18.90;99.90;;;;;;4985622;28;20433;-73
2023/09/24 10:58:03;;;;;;;6.83;2.17;;;19.10;99.90;;;;;;5011372;28;20485;-73
2023/09/24 11:00:32;;;;;;;7.47;2.20;;;19.30;99.90;;;;;;4991265;28;20426;-73
2023/09/24 11:02:58;;;;;;;5.20;2.03;;;19.20;99.90;;;;;;4974297;28;20410;-73
2023/09/24 11:05:25;;;;;;;6.95;2.13;;;19.10;99.90;;;;;;4991850;28;20418;-73
2023/09/24 11:07:52;;;;;;;6.15;1.90;;;19.10;99.90;;;;;;4981598;28;20418;-73
2023/09/24 11:10:25;;;;;;;5.43;1.75;;;19.30;99.90;;;;;;4988346;28;20754;-73
2023/09/24 11:12:57;;;;;;;6.53;2.13;;;19.10;99.90;;;;;;4985434;28;20432;-73
2023/09/24 11:15:24;;;;;;;6.45;2.00;;;19.60;99.90;;;;;;4990270;28;20450;-73
2023/09/24 11:17:51;;;;;;;4.80;1.90;;;19.70;99.90;;;;;;4976257;28;20427;-73
2023/09/24 11:20:20;;;;;;;4.93;2.08;;;19.40;99.90;;;;;;4996294;28;20911;-73
2023/09/24 11:23:09;;;;;;;4.07;2.03;;;19.50;99.90;;;;;;4973415;28;20782;-73
2023/09/24 11:25:36;;;;;;;5.63;2.03;;;19.10;99.90;;;;;;5000604;28;20429;-73
2023/09/24 11:28:03;;;;;;;4.80;1.95;;;19.70;99.90;;;;;;4978084;28;20427;-73
2023/09/24 11:30:47;;;;;;;5.88;1.95;;;19.20;99.90;;;;;;4974495;28;20409;-73
2023/09/24 11:33:21;;;;;;;4.97;1.90;;;19.60;99.90;;;;;;4996560;28;20450;-73
2023/09/24 11:35:49;;;;;;;5.53;1.98;;;19.80;99.90;;;;;;4991073;28;20423;-73
2023/09/24 11:38:30;;;;;;;7.70;2.15;;;19.80;99.90;;;;;;4996508;28;20421;-73
2023/09/24 11:41:14;;;;;;;4.60;1.80;;;19.60;99.90;;;;;;4992804;28;20433;-73
2023/09/24 11:43:41;;;;;;;4.75;1.60;;;19.80;99.90;;;;;;4991011;28;20415;-72
2023/09/24 11:46:28;;;;;;;3.85;1.83;;;19.50;99.90;;;;;;4996757;28;20429;-73
2023/09/24 11:48:56;;;;;;;5.47;2.05;;;20.10;99.90;;;;;;4979137;28;20430;-73
2023/09/24 11:51:22;;;;;;;5.68;2.00;;;20.00;99.90;;;;;;4997918;28;20425;-72
2023/09/24 11:53:48;;;;;;;5.03;2.00;;;20.00;99.90;;;;;;4988814;28;20418;-73
2023/09/24 11:56:14;;;;;;;4.97;1.70;;;20.00;99.90;;;;;;4979677;28;20458;-73
2023/09/24 11:58:39;;;;;;;5.88;2.00;;;19.90;99.90;;;;;;4999632;28;20426;-73
2023/09/24 12:01:08;;;;;;;5.40;1.90;;;19.90;99.90;;;;;;4984204;28;20439;-73
2023/09/24 12:03:34;;;;;;;5.20;2.00;;;20.10;99.90;;;;;;4980314;28;20429;-73
2023/09/24 12:05:59;;;;;;;5.88;1.90;;;19.80;99.90;;;;;;4985372;28;20417;-73
2023/09/24 12:08:25;;;;;;;4.25;1.60;;;20.00;99.90;;;;;;4990071;28;20419;-72
2023/09/24 12:10:51;;;;;;;4.13;1.80;;;20.00;99.90;;;;;;4995372;28;20993;-73
2023/09/24 12:13:18;;;;;;;4.60;1.80;;;19.60;99.90;;;;;;4981578;28;20549;-73
2023/09/24 12:15:44;;;;;;;5.07;1.95;;;20.00;99.90;;;;;;4993554;28;20430;-72
2023/09/24 12:18:11;;;;;;;3.58;1.60;;;19.60;99.90;;;;;;5016046;28;20438;-72
2023/09/24 12:20:39;;;;;;;3.63;1.70;;;19.90;99.90;;;;;;4998846;28;20781;-72
2023/09/24 12:23:07;;;;;;;5.63;1.70;;;20.30;99.90;;;;;;5010871;28;20410;-71
2023/09/24 12:25:36;;;;;;;4.38;1.60;;;20.40;99.90;;;;;;5002928;28;20401;-73
2023/09/24 12:28:10;;;;;;;4.93;1.60;;;20.40;99.90;;;;;;5006164;28;20946;-73
2023/09/24 12:30:37;;;;;;;3.95;1.70;;;20.00;99.90;;;;;;4970222;28;20430;-73
2023/09/24 12:33:03;;;;;;;4.90;1.67;;;20.40;99.90;;;;;;4977463;28;20575;-73
2023/09/24 12:35:28;;;;;;;5.75;1.70;;;20.50;99.90;;;;;;4992537;28;20521;-72
2023/09/24 12:37:54;;;;;;;4.75;1.83;;;20.60;99.90;;;;;;4979819;28;20472;-73
2023/09/24 12:40:22;;;;;;;4.20;1.70;;;20.60;99.90;;;;;;5000463;28;20424;-73
2023/09/24 12:42:48;;;;;;;5.32;1.60;;;20.40;99.90;;;;;;4977835;28;20926;-72
2023/09/24 12:45:14;;;;;;;6.80;1.98;;;20.70;99.90;;;;;;4995800;28;20407;-73
2023/09/24 12:47:40;;;;;;;4.47;1.80;;;20.40;99.90;;;;;;4980243;28;20499;-72
2023/09/24 12:50:08;;;;;;;5.97;1.73;;;20.50;99.90;;;;;;4980812;28;20516;-73
2023/09/24 12:52:39;;;;;;;5.68;1.60;;;20.70;99.90;;;;;;4995666;28;20494;-73
2023/09/24 12:55:07;;;;;;;5.15;1.90;;;20.50;99.90;;;;;;4978180;28;22080;-72
2023/09/24 12:57:34;;;;;;;4.72;1.83;;;20.90;99.90;;;;;;4990849;28;20479;-74
2023/09/24 13:00:00;;;;;;;6.30;1.85;;;20.50;99.90;;;;;;4995785;28;20421;-74